createdAt,value
2024-04-01T00:00:09.204Z,473.00
2024-04-01T00:01:09.248Z,469.00
2024-04-01T00:02:09.303Z,469.00
2024-04-01T00:03:09.735Z,468.00
2024-04-01T00:04:09.410Z,466.00
2024-04-01T00:05:09.430Z,467.00
2024-04-01T00:06:09.493Z,468.00
2024-04-01T00:07:09.546Z,469.00
2024-04-01T00:08:09.595Z,469.00
2024-04-01T00:09:09.615Z,470.00
2024-04-01T00:10:09.676Z,468.00
2024-04-01T00:11:09.707Z,470.00
2024-04-01T00:12:09.764Z,469.00
2024-04-01T00:13:10.235Z,468.00
2024-04-01T00:14:09.849Z,467.00
2024-04-01T00:15:09.906Z,469.00
2024-04-01T00:16:09.938Z,467.00
2024-04-01T00:17:09.992Z,468.00
2024-04-01T00:18:10.035Z,468.00
2024-04-01T00:19:10.097Z,469.00
2024-04-01T00:20:10.111Z,468.00
2024-04-01T00:21:10.166Z,469.00
2024-04-01T00:22:10.206Z,469.00
2024-04-01T00:23:10.747Z,467.00
2024-04-01T00:24:10.316Z,467.00
2024-04-01T00:25:10.350Z,469.00
2024-04-01T00:26:10.369Z,468.00
2024-04-01T00:27:10.390Z,467.00
2024-04-01T00:28:10.744Z,469.00
2024-04-01T00:29:10.469Z,468.00
2024-04-01T00:30:10.522Z,471.00
2024-04-01T00:31:10.594Z,470.00
2024-04-01T00:32:12.310Z,469.00
2024-04-01T00:33:10.606Z,473.00
2024-04-01T00:34:10.618Z,473.00
2024-04-01T00:35:10.626Z,474.00
2024-04-01T00:36:10.624Z,474.00
2024-04-01T00:37:10.631Z,473.00
2024-04-01T00:38:10.752Z,473.00
2024-04-01T00:39:10.604Z,473.00
2024-04-01T00:40:10.614Z,475.00
2024-04-01T00:41:10.645Z,472.00
2024-04-01T00:42:10.615Z,471.00
2024-04-01T00:43:10.644Z,470.00
2024-04-01T00:44:10.644Z,472.00
2024-04-01T00:45:10.640Z,472.00
2024-04-01T00:46:10.655Z,474.00
2024-04-01T00:47:10.649Z,475.00
2024-04-01T00:48:10.645Z,475.00
2024-04-01T00:49:11.538Z,477.00
2024-04-01T00:50:10.647Z,478.00
2024-04-01T00:51:10.685Z,476.00
2024-04-01T00:52:10.667Z,474.00
2024-04-01T00:53:10.754Z,474.00
2024-04-01T00:54:10.651Z,473.00
2024-04-01T00:55:10.660Z,473.00
2024-04-01T00:56:10.676Z,473.00
2024-04-01T00:57:10.645Z,475.00
2024-04-01T00:58:10.659Z,475.00
2024-04-01T00:59:10.692Z,474.00
2024-04-01T01:00:10.641Z,474.00
2024-04-01T01:01:10.662Z,475.00
2024-04-01T01:02:10.662Z,474.00
2024-04-01T01:03:10.748Z,473.00
2024-04-01T01:04:10.656Z,472.00
2024-04-01T01:05:10.673Z,472.00
2024-04-01T01:06:10.650Z,473.00
2024-04-01T01:07:10.680Z,475.00
2024-04-01T01:08:10.750Z,475.00
2024-04-01T01:09:10.749Z,473.00
2024-04-01T01:10:10.804Z,472.00
2024-04-01T01:11:10.862Z,472.00
2024-04-01T01:12:10.882Z,471.00
2024-04-01T01:13:10.892Z,473.00
2024-04-01T01:14:10.933Z,473.00
2024-04-01T01:15:10.960Z,473.00
2024-04-01T01:16:10.972Z,474.00
2024-04-01T01:17:11.015Z,475.00
2024-04-01T01:18:11.066Z,477.00
2024-04-01T01:19:11.080Z,478.00
2024-04-01T01:20:11.107Z,475.00
2024-04-01T01:21:11.147Z,476.00
2024-04-01T01:22:11.206Z,478.00
2024-04-01T01:23:11.203Z,477.00
2024-04-01T01:24:11.276Z,475.00
2024-04-01T01:25:11.304Z,474.00
2024-04-01T01:26:11.286Z,474.00
2024-04-01T01:27:11.326Z,474.00
2024-04-01T01:28:11.778Z,471.00
2024-04-01T01:29:11.348Z,469.00
2024-04-01T01:30:11.419Z,470.00
2024-04-01T01:31:11.374Z,471.00
2024-04-01T01:32:11.437Z,471.00
2024-04-01T01:33:11.741Z,472.00
2024-04-01T01:34:11.439Z,471.00
2024-04-01T01:35:11.507Z,468.00
2024-04-01T01:36:11.513Z,469.00
2024-04-01T01:37:11.510Z,469.00
2024-04-01T01:38:11.583Z,470.00
2024-04-01T01:39:11.577Z,471.00
2024-04-01T01:40:11.593Z,471.00
2024-04-01T01:41:11.599Z,473.00
2024-04-01T01:42:11.634Z,474.00
2024-04-01T01:43:11.776Z,472.00
2024-04-01T01:44:11.675Z,471.00
2024-04-01T01:45:11.689Z,471.00
2024-04-01T01:46:11.740Z,470.00
2024-04-01T01:47:11.739Z,469.00
2024-04-01T01:48:12.260Z,467.00
2024-04-01T01:49:11.803Z,467.00
2024-04-01T01:50:11.830Z,465.00
2024-04-01T01:51:11.838Z,465.00
2024-04-01T01:52:11.877Z,465.00
2024-04-01T01:53:11.925Z,467.00
2024-04-01T01:54:11.939Z,468.00
2024-04-01T01:55:11.970Z,467.00
2024-04-01T01:56:12.006Z,471.00
2024-04-01T01:57:12.026Z,469.00
2024-04-01T01:58:12.031Z,465.00
2024-04-01T01:59:12.052Z,467.00
2024-04-01T02:00:12.088Z,467.00
2024-04-01T02:01:12.101Z,470.00
2024-04-01T02:02:12.095Z,469.00
2024-04-01T02:03:13.588Z,470.00
2024-04-01T02:04:12.371Z,471.00
2024-04-01T02:05:12.395Z,471.00
2024-04-01T02:06:12.421Z,471.00
2024-04-01T02:07:12.425Z,469.00
2024-04-01T02:08:12.453Z,469.00
2024-04-01T02:09:12.454Z,471.00
2024-04-01T02:10:12.464Z,469.00
2024-04-01T02:11:12.483Z,467.00
2024-04-01T02:12:12.544Z,468.00
2024-04-01T02:13:12.792Z,471.00
2024-04-01T02:14:12.566Z,469.00
2024-04-01T02:15:12.591Z,467.00
2024-04-01T02:16:12.618Z,468.00
2024-04-01T02:17:12.649Z,467.00
2024-04-01T02:18:12.781Z,466.00
2024-04-01T02:19:12.694Z,466.00
2024-04-01T02:20:12.700Z,464.00
2024-04-01T02:21:12.715Z,464.00
2024-04-01T02:22:12.715Z,465.00
2024-04-01T02:23:12.718Z,468.00
2024-04-01T02:24:12.723Z,468.00
2024-04-01T02:25:12.737Z,468.00
2024-04-01T02:26:12.781Z,468.00
2024-04-01T02:27:12.772Z,472.00
2024-04-01T02:28:12.796Z,472.00
2024-04-01T02:29:12.818Z,472.00
2024-04-01T02:30:12.821Z,471.00
2024-04-01T02:31:12.824Z,468.00
2024-04-01T02:32:12.860Z,466.00
2024-04-01T02:33:13.290Z,465.00
2024-04-01T02:34:12.905Z,462.00
2024-04-01T02:35:12.900Z,461.00
2024-04-01T02:36:12.918Z,461.00
2024-04-01T02:37:12.921Z,460.00
2024-04-01T02:38:12.966Z,462.00
2024-04-01T02:39:12.971Z,465.00
2024-04-01T02:40:12.992Z,466.00
2024-04-01T02:41:12.994Z,465.00
2024-04-01T02:42:13.016Z,467.00
2024-04-01T02:43:13.062Z,468.00
2024-04-01T02:44:13.056Z,467.00
2024-04-01T02:45:13.082Z,466.00
2024-04-01T02:46:13.140Z,464.00
2024-04-01T02:47:13.164Z,465.00
2024-04-01T02:48:13.163Z,466.00
2024-04-01T02:49:13.158Z,465.00
2024-04-01T02:50:13.215Z,464.00
2024-04-01T02:51:13.221Z,465.00
2024-04-01T02:52:13.246Z,466.00
2024-04-01T02:53:13.251Z,466.00
2024-04-01T02:54:13.300Z,465.00
2024-04-01T02:55:13.288Z,463.00
2024-04-01T02:56:13.328Z,463.00
2024-04-01T02:57:13.373Z,462.00
2024-04-01T02:58:13.377Z,464.00
2024-04-01T02:59:13.423Z,464.00
2024-04-01T03:00:13.433Z,464.00
2024-04-01T03:01:13.472Z,466.00
2024-04-01T03:02:13.480Z,463.00
2024-04-01T03:03:13.507Z,464.00
2024-04-01T03:04:13.513Z,464.00
2024-04-01T03:05:13.530Z,465.00
2024-04-01T03:06:13.575Z,465.00
2024-04-01T03:07:13.563Z,466.00
2024-04-01T03:08:13.791Z,469.00
2024-04-01T03:09:13.599Z,465.00
2024-04-01T03:10:13.627Z,463.00
2024-04-01T03:11:13.643Z,464.00
2024-04-01T03:12:13.668Z,466.00
2024-04-01T03:13:13.695Z,466.00
2024-04-01T03:14:13.765Z,467.00
2024-04-01T03:15:13.701Z,467.00
2024-04-01T03:16:13.734Z,467.00
2024-04-01T03:17:13.823Z,467.00
2024-04-01T03:18:14.306Z,466.00
2024-04-01T03:19:13.794Z,465.00
2024-04-01T03:20:13.839Z,465.00
2024-04-01T03:21:13.850Z,465.00
2024-04-01T03:22:13.849Z,465.00
2024-04-01T03:23:13.876Z,468.00
2024-04-01T03:24:13.877Z,467.00
2024-04-01T03:25:13.907Z,468.00
2024-04-01T03:26:13.940Z,466.00
2024-04-01T03:27:13.941Z,468.00
2024-04-01T03:28:13.965Z,466.00
2024-04-01T03:29:13.971Z,468.00
2024-04-01T03:30:13.976Z,467.00
2024-04-01T03:31:14.012Z,469.00
2024-04-01T03:32:14.013Z,468.00
2024-04-01T03:33:14.080Z,467.00
2024-04-01T03:34:14.041Z,466.00
2024-04-01T03:35:14.053Z,462.00
2024-04-01T03:36:14.027Z,464.00
2024-04-01T03:37:14.072Z,464.00
2024-04-01T03:38:14.319Z,464.00
2024-04-01T03:39:14.087Z,462.00
2024-04-01T03:40:14.098Z,464.00
2024-04-01T03:41:14.088Z,463.00
2024-04-01T03:42:14.073Z,465.00
2024-04-01T03:43:14.125Z,464.00
2024-04-01T03:44:14.070Z,466.00
2024-04-01T03:45:14.089Z,465.00
2024-04-01T03:46:14.099Z,466.00
2024-04-01T03:47:14.095Z,469.00
2024-04-01T03:48:14.301Z,470.00
2024-04-01T03:49:14.110Z,470.00
2024-04-01T03:50:14.109Z,471.00
2024-04-01T03:51:14.100Z,473.00
2024-04-01T03:52:14.103Z,471.00
2024-04-01T03:53:14.129Z,471.00
2024-04-01T03:54:14.120Z,470.00
2024-04-01T03:55:14.121Z,471.00
2024-04-01T03:56:14.126Z,470.00
2024-04-01T03:57:14.140Z,471.00
2024-04-01T03:58:14.332Z,473.00
2024-04-01T03:59:14.149Z,471.00
2024-04-01T04:00:14.147Z,471.00
2024-04-01T04:01:14.167Z,471.00
2024-04-01T04:02:14.194Z,472.00
2024-04-01T04:03:14.202Z,472.00
2024-04-01T04:04:14.188Z,470.00
2024-04-01T04:05:14.185Z,469.00
2024-04-01T04:06:14.201Z,468.00
2024-04-01T04:07:14.223Z,469.00
2024-04-01T04:08:14.207Z,470.00
2024-04-01T04:09:14.222Z,471.00
2024-04-01T04:10:14.223Z,467.00
2024-04-01T04:11:14.239Z,465.00
2024-04-01T04:12:14.244Z,467.00
2024-04-01T04:13:14.331Z,468.00
2024-04-01T04:14:14.263Z,470.00
2024-04-01T04:15:14.265Z,470.00
2024-04-01T04:16:14.273Z,468.00
2024-04-01T04:17:14.284Z,466.00
2024-04-01T04:18:14.303Z,465.00
2024-04-01T04:19:14.291Z,470.00
2024-04-01T04:20:14.319Z,472.00
2024-04-01T04:21:14.313Z,473.00
2024-04-01T04:22:14.316Z,475.00
2024-04-01T04:23:14.334Z,476.00
2024-04-01T04:24:14.336Z,478.00
2024-04-01T04:25:14.334Z,479.00
2024-04-01T04:26:14.336Z,479.00
2024-04-01T04:27:14.349Z,480.00
2024-04-01T04:28:14.366Z,481.00
2024-04-01T04:29:14.364Z,477.00
2024-04-01T04:30:14.372Z,478.00
2024-04-01T04:31:14.391Z,476.00
2024-04-01T04:32:14.404Z,476.00
2024-04-01T04:33:14.407Z,476.00
2024-04-01T04:34:14.368Z,476.00
2024-04-01T04:35:14.406Z,475.00
2024-04-01T04:36:14.388Z,475.00
2024-04-01T04:37:14.407Z,476.00
2024-04-01T04:38:14.394Z,477.00
2024-04-01T04:39:14.399Z,477.00
2024-04-01T04:40:14.425Z,476.00
2024-04-01T04:41:14.430Z,476.00
2024-04-01T04:42:14.441Z,477.00
2024-04-01T04:43:14.434Z,480.00
2024-04-01T04:44:14.454Z,477.00
2024-04-01T04:45:21.719Z,470.00
2024-04-01T04:46:21.715Z,473.00
2024-04-01T04:47:21.721Z,473.00
2024-04-01T04:48:21.728Z,471.00
2024-04-01T04:49:21.752Z,469.00
2024-04-01T04:50:21.760Z,468.00
2024-04-01T04:51:21.766Z,467.00
2024-04-01T04:52:23.067Z,467.00
2024-04-01T04:53:21.729Z,470.00
2024-04-01T04:54:21.776Z,470.00
2024-04-01T04:55:21.728Z,473.00
2024-04-01T04:56:21.756Z,475.00
2024-04-01T04:57:21.729Z,474.00
2024-04-01T04:58:21.813Z,474.00
2024-04-01T04:59:21.728Z,474.00
2024-04-01T05:00:21.846Z,474.00
2024-04-01T05:01:21.720Z,475.00
2024-04-01T05:02:21.744Z,476.00
2024-04-01T05:03:21.749Z,476.00
2024-04-01T05:04:21.761Z,477.00
2024-04-01T05:05:21.745Z,475.00
2024-04-01T05:06:21.761Z,474.00
2024-04-01T05:07:21.734Z,473.00
2024-04-01T05:08:21.764Z,476.00
2024-04-01T05:09:21.791Z,473.00
2024-04-01T05:10:21.758Z,474.00
2024-04-01T05:11:21.808Z,472.00
2024-04-01T05:12:21.804Z,475.00
2024-04-01T05:13:21.823Z,477.00
2024-04-01T05:14:21.733Z,479.00
2024-04-01T05:15:21.757Z,476.00
2024-04-01T05:16:21.755Z,477.00
2024-04-01T05:17:21.777Z,475.00
2024-04-01T05:18:21.951Z,472.00
2024-04-01T05:19:21.814Z,474.00
2024-04-01T05:20:21.857Z,474.00
2024-04-01T05:21:21.849Z,474.00
2024-04-01T05:22:21.877Z,474.00
2024-04-01T05:23:21.916Z,478.00
2024-04-01T05:24:21.931Z,479.00
2024-04-01T05:25:21.967Z,477.00
2024-04-01T05:26:22.009Z,475.00
2024-04-01T05:27:22.073Z,473.00
2024-04-01T05:28:22.098Z,475.00
2024-04-01T05:29:22.118Z,477.00
2024-04-01T05:30:22.120Z,478.00
2024-04-01T05:31:22.181Z,475.00
2024-04-01T05:32:22.186Z,472.00
2024-04-01T05:33:22.195Z,468.00
2024-04-01T05:34:22.184Z,466.00
2024-04-01T05:35:22.200Z,467.00
2024-04-01T05:36:22.205Z,467.00
2024-04-01T05:37:22.210Z,466.00
2024-04-01T05:38:22.220Z,467.00
2024-04-01T05:39:22.200Z,469.00
2024-04-01T05:40:22.210Z,472.00
2024-04-01T05:41:22.216Z,470.00
2024-04-01T05:42:22.226Z,468.00
2024-04-01T05:43:22.236Z,469.00
2024-04-01T05:44:22.240Z,470.00
2024-04-01T05:45:22.256Z,470.00
2024-04-01T05:46:22.257Z,471.00
2024-04-01T05:47:22.240Z,470.00
2024-04-01T05:48:22.250Z,470.00
2024-04-01T05:49:22.325Z,470.00
2024-04-01T05:50:22.283Z,473.00
2024-04-01T05:51:22.290Z,471.00
2024-04-01T05:52:22.294Z,468.00
2024-04-01T05:53:22.343Z,464.00
2024-04-01T05:54:22.332Z,464.00
2024-04-01T05:55:22.350Z,464.00
2024-04-01T05:56:22.390Z,465.00
2024-04-01T05:57:22.387Z,469.00
2024-04-01T05:58:22.859Z,466.00
2024-04-01T05:59:22.472Z,467.00
2024-04-01T06:00:22.481Z,469.00
2024-04-01T06:01:22.522Z,468.00
2024-04-01T06:02:22.532Z,471.00
2024-04-01T06:03:22.584Z,468.00
2024-04-01T06:04:22.555Z,470.00
2024-04-01T06:05:22.548Z,468.00
2024-04-01T06:06:22.541Z,468.00
2024-04-01T06:07:22.552Z,469.00
2024-04-01T06:08:22.589Z,470.00
2024-04-01T06:09:22.572Z,473.00
2024-04-01T06:10:22.623Z,470.00
2024-04-01T06:11:22.570Z,469.00
2024-04-01T06:12:22.605Z,470.00
2024-04-01T06:13:22.877Z,472.00
2024-04-01T06:14:22.600Z,471.00
2024-04-01T06:15:22.606Z,471.00
2024-04-01T06:16:22.630Z,472.00
2024-04-01T06:17:22.611Z,472.00
2024-04-01T06:18:22.695Z,472.00
2024-04-01T06:19:22.686Z,475.00
2024-04-01T06:20:22.666Z,474.00
2024-04-01T06:21:22.655Z,475.00
2024-04-01T06:22:22.676Z,475.00
2024-04-01T06:23:22.673Z,473.00
2024-04-01T06:24:22.668Z,474.00
2024-04-01T06:25:22.699Z,472.00
2024-04-01T06:26:22.700Z,471.00
2024-04-01T06:27:22.736Z,470.00
2024-04-01T06:28:22.726Z,467.00
2024-04-01T06:29:22.753Z,466.00
2024-04-01T06:30:22.737Z,468.00
2024-04-01T06:31:22.767Z,469.00
2024-04-01T06:32:22.753Z,466.00
2024-04-01T06:33:22.776Z,467.00
2024-04-01T06:34:22.777Z,464.00
2024-04-01T06:35:22.795Z,466.00
2024-04-01T06:36:22.789Z,465.00
2024-04-01T06:37:22.812Z,468.00
2024-04-01T06:38:22.828Z,472.00
2024-04-01T06:39:22.850Z,474.00
2024-04-01T06:40:22.874Z,476.00
2024-04-01T06:41:22.900Z,474.00
2024-04-01T06:42:22.963Z,474.00
2024-04-01T06:43:22.997Z,476.00
2024-04-01T06:44:23.033Z,475.00
2024-04-01T06:45:23.071Z,475.00
2024-04-01T06:46:23.142Z,475.00
2024-04-01T06:47:23.114Z,472.00
2024-04-01T06:48:23.155Z,475.00
2024-04-01T06:49:23.158Z,475.00
2024-04-01T06:50:23.228Z,474.00
2024-04-01T06:51:23.259Z,476.00
2024-04-01T06:52:23.309Z,481.00
2024-04-01T06:53:23.355Z,481.00
2024-04-01T06:54:23.357Z,482.00
2024-04-01T06:55:23.401Z,479.00
2024-04-01T06:56:23.423Z,480.00
2024-04-01T06:57:23.481Z,475.00
2024-04-01T06:58:23.520Z,473.00
2024-04-01T06:59:23.537Z,474.00
2024-04-01T07:00:23.569Z,473.00
2024-04-01T07:01:23.573Z,473.00
2024-04-01T07:02:23.576Z,470.00
2024-04-01T07:03:23.639Z,467.00
2024-04-01T07:04:23.670Z,467.00
2024-04-01T07:05:23.688Z,468.00
2024-04-01T07:06:23.727Z,467.00
2024-04-01T07:07:23.764Z,466.00
2024-04-01T07:08:23.776Z,465.00
2024-04-01T07:09:23.833Z,465.00
2024-04-01T07:10:23.859Z,465.00
2024-04-01T07:11:23.908Z,465.00
2024-04-01T07:12:23.910Z,466.00
2024-04-01T07:13:23.964Z,470.00
2024-04-01T07:14:23.988Z,469.00
2024-04-01T07:15:24.001Z,471.00
2024-04-01T07:16:24.029Z,471.00
2024-04-01T07:17:24.073Z,468.00
2024-04-01T07:18:24.127Z,469.00
2024-04-01T07:19:24.175Z,470.00
2024-04-01T07:20:24.194Z,471.00
2024-04-01T07:21:27.449Z,471.00
2024-04-01T07:22:24.256Z,470.00
2024-04-01T07:23:24.313Z,473.00
2024-04-01T07:24:24.271Z,473.00
2024-04-01T07:25:24.254Z,469.00
2024-04-01T07:26:24.249Z,468.00
2024-04-01T07:27:24.268Z,469.00
2024-04-01T07:28:24.268Z,469.00
2024-04-01T07:29:24.290Z,469.00
2024-04-01T07:30:24.294Z,467.00
2024-04-01T07:31:24.274Z,466.00
2024-04-01T07:32:24.305Z,468.00
2024-04-01T07:33:24.257Z,470.00
2024-04-01T07:34:24.403Z,469.00
2024-04-01T07:35:24.294Z,466.00
2024-04-01T07:36:24.289Z,465.00
2024-04-01T07:37:24.280Z,465.00
2024-04-01T07:38:24.287Z,465.00
2024-04-01T07:39:24.405Z,465.00
2024-04-01T07:40:24.276Z,466.00
2024-04-01T07:41:24.290Z,466.00
2024-04-01T07:42:24.291Z,466.00
2024-04-01T07:43:24.305Z,462.00
2024-04-01T07:44:24.301Z,464.00
2024-04-01T07:45:24.286Z,463.00
2024-04-01T07:46:24.287Z,466.00
2024-04-01T07:47:24.302Z,468.00
2024-04-01T07:48:24.335Z,470.00
2024-04-01T07:49:24.353Z,470.00
2024-04-01T07:50:24.310Z,472.00
2024-04-01T07:51:24.325Z,475.00
2024-04-01T07:52:24.315Z,473.00
2024-04-01T07:53:24.310Z,475.00
2024-04-01T07:54:24.336Z,475.00
2024-04-01T07:55:24.319Z,473.00
2024-04-01T07:56:24.315Z,473.00
2024-04-01T07:57:24.320Z,475.00
2024-04-01T07:58:24.327Z,472.00
2024-04-01T07:59:24.372Z,472.00
2024-04-01T08:00:24.314Z,474.00
2024-04-01T08:01:24.318Z,474.00
2024-04-01T08:02:24.344Z,474.00
2024-04-01T08:03:24.315Z,472.00
2024-04-01T08:04:24.316Z,475.00
2024-04-01T08:05:24.388Z,478.00
2024-04-01T08:06:24.406Z,477.00
2024-04-01T08:07:24.426Z,478.00
2024-04-01T08:08:24.455Z,476.00
2024-04-01T08:09:24.917Z,475.00
2024-04-01T08:10:24.595Z,475.00
2024-04-01T08:11:24.630Z,476.00
2024-04-01T08:12:24.680Z,475.00
2024-04-01T08:13:24.752Z,474.00
2024-04-01T08:14:24.799Z,472.00
2024-04-01T08:15:24.874Z,474.00
2024-04-01T08:16:24.911Z,473.00
2024-04-01T08:17:25.002Z,472.00
2024-04-01T08:18:25.060Z,470.00
2024-04-01T08:19:25.512Z,473.00
2024-04-01T08:20:25.238Z,474.00
2024-04-01T08:21:25.262Z,473.00
2024-04-01T08:22:25.354Z,474.00
2024-04-01T08:23:25.394Z,473.00
2024-04-01T08:24:25.471Z,473.00
2024-04-01T08:25:25.514Z,474.00
2024-04-01T08:26:25.557Z,474.00
2024-04-01T08:27:25.574Z,475.00
2024-04-01T08:28:25.615Z,474.00
2024-04-01T08:29:25.902Z,473.00
2024-04-01T08:30:25.658Z,474.00
2024-04-01T08:31:25.699Z,473.00
2024-04-01T08:32:25.702Z,475.00
2024-04-01T08:33:25.707Z,473.00
2024-04-01T08:34:25.974Z,473.00
2024-04-01T08:35:25.762Z,475.00
2024-04-01T08:36:25.853Z,471.00
2024-04-01T08:37:25.866Z,469.00
2024-04-01T08:38:25.902Z,469.00
2024-04-01T08:39:26.414Z,471.00
2024-04-01T08:40:25.988Z,472.00
2024-04-01T08:41:26.070Z,470.00
2024-04-01T08:42:26.103Z,470.00
2024-04-01T08:43:26.160Z,470.00
2024-04-01T08:44:26.420Z,471.00
2024-04-01T08:45:26.252Z,471.00
2024-04-01T08:46:26.308Z,470.00
2024-04-01T08:47:26.383Z,470.00
2024-04-01T08:48:26.435Z,471.00
2024-04-01T08:49:26.477Z,471.00
2024-04-01T08:50:28.825Z,471.00
2024-04-01T08:51:26.558Z,473.00
2024-04-01T08:52:26.572Z,472.00
2024-04-01T08:53:26.571Z,473.00
2024-04-01T08:54:26.908Z,475.00
2024-04-01T08:55:26.587Z,476.00
2024-04-01T08:56:26.558Z,473.00
2024-04-01T08:57:26.567Z,472.00
2024-04-01T08:58:26.572Z,468.00
2024-04-01T08:59:26.544Z,469.00
2024-04-01T09:00:26.561Z,471.00
2024-04-01T09:01:26.558Z,470.00
2024-04-01T09:02:26.595Z,467.00
2024-04-01T09:03:26.590Z,468.00
2024-04-01T09:04:26.582Z,469.00
2024-04-01T09:05:26.595Z,470.00
2024-04-01T09:06:26.557Z,469.00
2024-04-01T09:07:26.579Z,470.00
2024-04-01T09:08:26.585Z,473.00
2024-04-01T09:09:26.989Z,476.00
2024-04-01T09:10:26.591Z,476.00
2024-04-01T09:11:26.578Z,475.00
2024-04-01T09:12:26.599Z,476.00
2024-04-01T09:13:26.611Z,475.00
2024-04-01T09:14:26.928Z,474.00
2024-04-01T09:15:26.597Z,473.00
2024-04-01T09:16:26.595Z,472.00
2024-04-01T09:17:26.594Z,469.00
2024-04-01T09:18:26.574Z,470.00
2024-04-01T09:19:26.617Z,473.00
2024-04-01T09:20:26.698Z,472.00
2024-04-01T09:21:26.754Z,473.00
2024-04-01T09:22:26.814Z,471.00
2024-04-01T09:23:26.899Z,473.00
2024-04-01T09:24:26.987Z,472.00
2024-04-01T09:25:27.075Z,473.00
2024-04-01T09:26:27.122Z,469.00
2024-04-01T09:27:27.187Z,470.00
2024-04-01T09:28:27.253Z,469.00
2024-04-01T09:29:27.354Z,473.00
2024-04-01T09:30:27.415Z,474.00
2024-04-01T09:31:27.462Z,471.00
2024-04-01T09:32:27.553Z,472.00
2024-04-01T09:33:27.600Z,471.00
2024-04-01T09:34:27.690Z,470.00
2024-04-01T09:35:27.772Z,469.00
2024-04-01T09:36:27.836Z,469.00
2024-04-01T09:37:27.923Z,471.00
2024-04-01T09:38:27.981Z,471.00
2024-04-01T09:39:29.576Z,469.00
2024-04-01T09:40:28.051Z,470.00
2024-04-01T09:41:28.072Z,471.00
2024-04-01T09:42:28.064Z,469.00
2024-04-01T09:43:42.461Z,469.00
2024-04-01T09:44:29.096Z,468.00
2024-04-01T09:45:28.088Z,468.00
2024-04-01T09:46:28.039Z,467.00
2024-04-01T09:47:28.123Z,468.00
2024-04-01T09:48:28.062Z,468.00
2024-04-01T09:49:28.083Z,468.00
2024-04-01T09:50:28.096Z,467.00
2024-04-01T09:51:28.089Z,465.00
2024-04-01T09:52:28.166Z,465.00
2024-04-01T09:53:28.237Z,465.00
2024-04-01T09:54:28.339Z,466.00
2024-04-01T09:55:28.385Z,466.00
2024-04-01T09:56:28.456Z,465.00
2024-04-01T09:57:35.549Z,465.00
2024-04-01T09:58:29.529Z,467.00
2024-04-01T09:59:28.537Z,467.00
2024-04-01T10:00:28.531Z,468.00
2024-04-01T10:01:28.535Z,468.00
2024-04-01T10:02:28.563Z,467.00
2024-04-01T10:03:28.529Z,470.00
2024-04-01T10:04:28.558Z,474.00
2024-04-01T10:05:28.599Z,470.00
2024-04-01T10:06:28.675Z,465.00
2024-04-01T10:07:28.759Z,463.00
2024-04-01T10:08:28.850Z,463.00
2024-04-01T10:09:28.890Z,463.00
2024-04-01T10:10:28.922Z,463.00
2024-04-01T10:11:29.008Z,467.00
2024-04-01T10:12:29.128Z,471.00
2024-04-01T10:13:29.155Z,470.00
2024-04-01T10:14:29.227Z,467.00
2024-04-01T10:15:29.286Z,465.00
2024-04-01T10:16:29.356Z,464.00
2024-04-01T10:17:29.433Z,463.00
2024-04-01T10:18:29.496Z,466.00
2024-04-01T10:19:29.546Z,471.00
2024-04-01T10:20:29.628Z,470.00
2024-04-01T10:21:29.657Z,470.00
2024-04-01T10:22:29.713Z,469.00
2024-04-01T10:23:29.739Z,473.00
2024-04-01T10:24:29.957Z,472.00
2024-04-01T10:25:29.849Z,473.00
2024-04-01T10:26:29.939Z,473.00
2024-04-01T10:27:30.006Z,474.00
2024-04-01T10:28:30.088Z,473.00
2024-04-01T10:29:30.132Z,474.00
2024-04-01T10:30:30.203Z,474.00
2024-04-01T10:31:30.390Z,475.00
2024-04-01T10:32:30.324Z,474.00
2024-04-01T10:33:30.419Z,473.00
2024-04-01T10:34:30.502Z,474.00
2024-04-01T10:35:30.595Z,472.00
2024-04-01T10:36:31.039Z,472.00
2024-04-01T10:37:30.697Z,471.00
2024-04-01T10:38:30.778Z,470.00
2024-04-01T10:39:30.820Z,469.00
2024-04-01T10:40:30.880Z,468.00
2024-04-01T10:41:30.920Z,467.00
2024-04-01T10:42:33.508Z,467.00
2024-04-01T10:43:30.962Z,467.00
2024-04-01T10:44:30.988Z,468.00
2024-04-01T10:45:31.001Z,468.00
2024-04-01T10:46:30.999Z,468.00
2024-04-01T10:47:31.005Z,466.00
2024-04-01T10:48:30.986Z,464.00
2024-04-01T10:49:31.001Z,463.00
2024-04-01T10:50:30.995Z,463.00
2024-04-01T10:51:31.036Z,467.00
2024-04-01T10:52:30.988Z,467.00
2024-04-01T10:53:30.974Z,468.00
2024-04-01T10:54:30.977Z,469.00
2024-04-01T10:55:30.986Z,471.00
2024-04-01T10:56:30.995Z,472.00
2024-04-01T10:57:31.008Z,470.00
2024-04-01T10:58:31.027Z,469.00
2024-04-01T10:59:31.098Z,468.00
2024-04-01T11:00:31.032Z,467.00
2024-04-01T11:01:30.983Z,466.00
2024-04-01T11:02:31.008Z,466.00
2024-04-01T11:03:31.013Z,464.00
2024-04-01T11:04:31.011Z,464.00
2024-04-01T11:05:31.002Z,463.00
2024-04-01T11:06:31.007Z,465.00
2024-04-01T11:07:31.011Z,463.00
2024-04-01T11:08:31.024Z,466.00
2024-04-01T11:09:31.027Z,463.00
2024-04-01T11:10:31.440Z,467.00
2024-04-01T11:11:37.539Z,468.00
2024-04-01T11:12:32.003Z,465.00
2024-04-01T11:13:31.035Z,465.00
2024-04-01T11:14:31.473Z,464.00
2024-04-01T11:15:31.026Z,465.00
2024-04-01T11:16:31.030Z,465.00
2024-04-01T11:17:31.052Z,465.00
2024-04-01T11:18:31.013Z,467.00
2024-04-01T11:19:31.066Z,468.00
2024-04-01T11:20:31.023Z,468.00
2024-04-01T11:21:31.049Z,469.00
2024-04-01T11:22:31.071Z,466.00
2024-04-01T11:23:31.044Z,465.00
2024-04-01T11:24:31.053Z,466.00
2024-04-01T11:25:31.036Z,465.00
2024-04-01T11:26:31.056Z,470.00
2024-04-01T11:27:31.058Z,467.00
2024-04-01T11:28:31.048Z,466.00
2024-04-01T11:29:33.320Z,465.00
2024-04-01T11:30:31.054Z,463.00
2024-04-01T11:31:31.066Z,461.00
2024-04-01T11:32:31.079Z,463.00
2024-04-01T11:33:31.097Z,462.00
2024-04-01T11:34:31.118Z,462.00
2024-04-01T11:35:32.044Z,463.00
2024-04-01T11:36:31.213Z,464.00
2024-04-01T11:37:31.242Z,463.00
2024-04-01T11:38:31.302Z,463.00
2024-04-01T11:39:31.467Z,462.00
2024-04-01T11:40:31.384Z,464.00
2024-04-01T11:41:31.461Z,464.00
2024-04-01T11:42:31.480Z,462.00
2024-04-01T11:43:31.537Z,461.00
2024-04-01T11:44:43.092Z,459.00
2024-04-01T11:45:32.617Z,458.00
2024-04-01T11:46:31.619Z,459.00
2024-04-01T11:47:31.635Z,460.00
2024-04-01T11:48:31.613Z,459.00
2024-04-01T11:49:31.620Z,459.00
2024-04-01T11:50:31.608Z,461.00
2024-04-01T11:51:31.642Z,462.00
2024-04-01T11:52:31.621Z,463.00
2024-04-01T11:53:31.634Z,462.00
2024-04-01T11:54:31.653Z,465.00
2024-04-01T11:55:31.731Z,467.00
2024-04-01T11:56:31.783Z,466.00
2024-04-01T11:57:31.846Z,465.00
2024-04-01T11:58:31.910Z,463.00
2024-04-01T11:59:32.087Z,465.00
2024-04-01T12:00:32.085Z,461.00
2024-04-01T12:01:32.093Z,461.00
2024-04-01T12:02:32.153Z,463.00
2024-04-01T12:03:32.220Z,461.00
2024-04-01T12:04:32.463Z,462.00
2024-04-01T12:05:32.367Z,462.00
2024-04-01T12:06:32.456Z,462.00
2024-04-01T12:07:32.502Z,464.00
2024-04-01T12:08:34.987Z,463.00
2024-04-01T12:09:32.568Z,460.00
2024-04-01T12:10:32.584Z,459.00
2024-04-01T12:11:32.582Z,459.00
2024-04-01T12:12:32.560Z,461.00
2024-04-01T12:13:32.577Z,462.00
2024-04-01T12:14:32.570Z,461.00
2024-04-01T12:15:32.575Z,460.00
2024-04-01T12:16:32.585Z,461.00
2024-04-01T12:17:32.590Z,462.00
2024-04-01T12:18:32.615Z,462.00
2024-04-01T12:19:32.609Z,463.00
2024-04-01T12:20:35.399Z,464.00
2024-04-01T12:21:32.644Z,465.00
2024-04-01T12:22:32.614Z,465.00
2024-04-01T12:23:32.589Z,464.00
2024-04-01T12:24:32.606Z,463.00
2024-04-01T12:25:32.590Z,463.00
2024-04-01T12:26:32.592Z,463.00
2024-04-01T12:27:32.600Z,462.00
2024-04-01T12:28:32.598Z,460.00